createdAt,value
2023-03-29T00:02:31.266Z,61.83
2023-03-29T00:05:09.858Z,62.11
2023-03-29T00:07:46.436Z,62.13
2023-03-29T00:10:24.214Z,62.24
2023-03-29T00:13:00.817Z,62.27
2023-03-29T00:15:37.145Z,62.18
2023-03-29T00:18:13.463Z,62.15
2023-03-29T00:20:55.152Z,62.31
2023-03-29T00:23:31.493Z,62.33
2023-03-29T00:26:08.796Z,62.38
2023-03-29T00:28:45.807Z,62.38
2023-03-29T00:31:22.960Z,62.47
2023-03-29T00:33:59.646Z,62.55
2023-03-29T00:36:40.434Z,62.81
2023-03-29T00:39:16.862Z,63.05
2023-03-29T00:41:54.277Z,63.02
2023-03-29T00:45:06.149Z,63.18
2023-03-29T00:47:49.305Z,63.25
2023-03-29T00:50:32.154Z,63.50
2023-03-29T00:53:14.873Z,63.61
2023-03-29T00:55:57.275Z,63.69
2023-03-29T00:58:43.588Z,63.78
2023-03-29T01:01:28.796Z,63.93
2023-03-29T01:04:18.172Z,64.00
2023-03-29T01:07:04.162Z,64.13
2023-03-29T01:09:45.979Z,64.13
2023-03-29T01:12:25.520Z,64.35
2023-03-29T01:15:07.926Z,64.36
2023-03-29T01:17:50.324Z,64.46
2023-03-29T01:20:46.334Z,64.61
2023-03-29T01:23:52.751Z,64.67
2023-03-29T01:26:43.809Z,64.76
2023-03-29T01:29:29.543Z,64.73
2023-03-29T01:32:13.058Z,64.65
2023-03-29T01:34:57.933Z,64.66
2023-03-29T01:37:42.733Z,64.81
2023-03-29T01:40:20.015Z,64.90
2023-03-29T01:43:07.253Z,64.93
2023-03-29T01:45:52.871Z,65.21
2023-03-29T01:48:37.660Z,65.48
2023-03-29T01:51:24.970Z,65.67
2023-03-29T01:54:08.916Z,65.73
2023-03-29T01:56:50.799Z,65.80
2023-03-29T01:59:33.441Z,65.73
2023-03-29T02:02:16.079Z,65.88
2023-03-29T02:04:57.769Z,65.81
2023-03-29T02:07:38.200Z,65.97
2023-03-29T02:10:18.758Z,66.11
2023-03-29T02:12:55.211Z,66.07
2023-03-29T02:15:31.978Z,66.20
2023-03-29T02:18:09.458Z,66.15
2023-03-29T02:20:50.804Z,66.30
2023-03-29T02:23:36.276Z,66.49
2023-03-29T02:26:14.500Z,66.55
2023-03-29T02:28:51.732Z,66.53
2023-03-29T02:31:34.909Z,66.51
2023-03-29T02:34:22.454Z,66.71
2023-03-29T02:37:04.204Z,66.86
2023-03-29T02:39:43.561Z,66.85
2023-03-29T02:42:22.980Z,67.00
2023-03-29T02:45:03.937Z,67.10
2023-03-29T02:47:46.727Z,67.19
2023-03-29T02:50:24.979Z,67.28
2023-03-29T02:53:11.637Z,67.25
2023-03-29T02:55:48.678Z,67.23
2023-03-29T02:58:26.928Z,67.34
2023-03-29T03:01:07.745Z,67.54
2023-03-29T03:03:45.387Z,67.72
2023-03-29T03:06:22.352Z,67.80
2023-03-29T03:09:00.151Z,67.94
2023-03-29T03:11:40.508Z,68.22
2023-03-29T03:14:19.291Z,68.45
2023-03-29T03:16:55.800Z,68.64
2023-03-29T03:19:32.216Z,68.78
2023-03-29T03:22:10.070Z,68.94
2023-03-29T03:24:46.970Z,68.95
2023-03-29T03:27:23.294Z,69.16
2023-03-29T03:29:59.671Z,69.22
2023-03-29T03:33:29.281Z,69.34
2023-03-29T03:36:26.146Z,69.30
2023-03-29T03:39:03.191Z,69.39
2023-03-29T03:41:39.596Z,69.33
2023-03-29T03:44:15.839Z,69.44
2023-03-29T03:46:52.824Z,69.72
2023-03-29T03:49:29.433Z,69.91
2023-03-29T03:52:06.792Z,70.00
2023-03-29T03:54:44.160Z,70.09
2023-03-29T03:57:41.414Z,70.35
2023-03-29T04:00:23.471Z,70.47
2023-03-29T04:03:07.197Z,70.60
2023-03-29T04:05:47.468Z,70.65
2023-03-29T04:08:24.574Z,70.79
2023-03-29T04:11:23.762Z,70.93
2023-03-29T04:14:00.253Z,71.09
2023-03-29T04:17:27.350Z,71.16
2023-03-29T04:20:12.019Z,71.28
2023-03-29T04:22:49.902Z,71.27
2023-03-29T04:25:26.410Z,71.33
2023-03-29T04:28:09.936Z,71.30
2023-03-29T04:30:55.068Z,71.32
2023-03-29T04:33:51.703Z,71.31
2023-03-29T04:36:28.628Z,71.36
2023-03-29T04:39:07.917Z,71.38
2023-03-29T04:41:46.195Z,71.36
2023-03-29T04:44:44.203Z,71.47
2023-03-29T04:47:22.510Z,71.56
2023-03-29T04:50:06.559Z,71.33
2023-03-29T04:52:51.526Z,71.11
2023-03-29T04:55:28.080Z,70.67
2023-03-29T04:58:10.250Z,70.06
2023-03-29T05:00:49.685Z,69.40
2023-03-29T05:03:40.447Z,68.63
2023-03-29T05:06:25.538Z,67.58
2023-03-29T05:09:02.537Z,66.52
2023-03-29T05:11:43.420Z,65.73
2023-03-29T05:14:21.062Z,64.82
2023-03-29T05:16:57.455Z,63.98
2023-03-29T05:19:34.144Z,62.61
2023-03-29T05:22:10.433Z,61.35
2023-03-29T05:24:47.040Z,60.20
2023-03-29T05:27:27.938Z,58.93
2023-03-29T05:30:13.839Z,58.16
2023-03-29T05:32:59.409Z,57.28
2023-03-29T05:35:36.713Z,56.16
2023-03-29T05:38:14.722Z,55.46
2023-03-29T05:40:51.440Z,53.83
2023-03-29T05:43:46.798Z,52.67
2023-03-29T05:46:23.324Z,52.06
2023-03-29T05:49:02.495Z,50.80
2023-03-29T05:52:34.341Z,49.42
2023-03-29T05:55:13.201Z,48.74
2023-03-29T05:57:49.759Z,48.15
2023-03-29T06:00:30.153Z,47.45
2023-03-29T06:03:21.730Z,46.95
2023-03-29T06:06:05.130Z,45.65
2023-03-29T06:08:43.049Z,45.58
2023-03-29T06:11:28.126Z,44.72
2023-03-29T06:14:50.278Z,44.27
2023-03-29T06:17:38.208Z,44.38
2023-03-29T06:20:17.201Z,43.87
2023-03-29T06:22:57.136Z,43.70
2023-03-29T06:25:34.251Z,43.32
2023-03-29T06:28:12.033Z,42.74
2023-03-29T06:30:50.119Z,42.93
2023-03-29T06:33:26.982Z,43.01
2023-03-29T06:36:23.958Z,42.27
2023-03-29T06:39:01.079Z,41.28
2023-03-29T06:41:56.271Z,41.33
2023-03-29T06:57:02.006Z,40.23
2023-03-29T07:01:39.356Z,39.55
2023-03-29T07:16:39.967Z,38.54
2023-03-29T07:21:13.421Z,38.14
2023-03-29T07:29:28.829Z,37.71
2023-03-29T07:34:04.154Z,38.09
2023-03-29T07:38:38.265Z,37.12
2023-03-29T07:43:16.134Z,37.32
2023-03-29T07:52:59.131Z,36.13
2023-03-29T07:57:35.028Z,34.30
2023-03-29T08:02:13.450Z,34.24
2023-03-29T08:11:49.562Z,34.19
2023-03-29T08:27:51.352Z,35.06
2023-03-29T08:42:56.498Z,33.86
2023-03-29T08:46:14.962Z,33.37
2023-03-29T08:48:58.437Z,33.20
2023-03-29T08:51:41.583Z,33.70
2023-03-29T09:05:01.930Z,33.99
2023-03-29T09:09:38.368Z,34.57
2023-03-29T09:14:21.072Z,35.12
2023-03-29T09:23:56.127Z,33.83
2023-03-29T09:28:41.297Z,35.58
2023-03-29T09:42:23.518Z,36.49
2023-03-29T09:45:08.663Z,36.49
2023-03-29T09:48:00.320Z,37.21
2023-03-29T09:50:50.437Z,37.09
2023-03-29T09:53:37.035Z,37.96
2023-03-29T09:56:59.872Z,36.88
2023-03-29T09:59:37.161Z,36.80
2023-03-29T10:02:27.712Z,37.64
2023-03-29T10:05:10.297Z,37.35
2023-03-29T10:07:54.573Z,38.02
2023-03-29T10:10:36.910Z,38.10
2023-03-29T10:13:23.089Z,38.82
2023-03-29T10:16:09.612Z,38.11
2023-03-29T10:18:51.333Z,38.79
2023-03-29T10:21:32.735Z,39.00
2023-03-29T10:24:11.990Z,38.35
2023-03-29T10:26:49.473Z,38.13
2023-03-29T10:29:27.921Z,38.97
2023-03-29T10:32:14.621Z,38.02
2023-03-29T10:34:52.601Z,37.22
2023-03-29T10:37:31.602Z,38.99
2023-03-29T10:40:17.420Z,39.00
2023-03-29T10:42:59.198Z,37.91
2023-03-29T10:45:41.159Z,37.74
2023-03-29T10:48:20.461Z,37.39
2023-03-29T10:51:02.319Z,38.41
2023-03-29T10:53:40.225Z,37.79
2023-03-29T10:56:35.684Z,37.56
2023-03-29T10:59:33.820Z,37.41
2023-03-29T11:03:32.744Z,36.74
2023-03-29T11:06:21.001Z,37.04
2023-03-29T11:09:08.233Z,35.01
2023-03-29T11:12:15.996Z,36.59
2023-03-29T11:15:11.350Z,37.90
2023-03-29T11:18:11.150Z,36.37
2023-03-29T11:20:55.995Z,35.98
2023-03-29T11:23:51.322Z,36.56
2023-03-29T11:26:36.026Z,37.59
2023-03-29T11:29:23.042Z,37.33
2023-03-29T11:32:14.207Z,36.67
2023-03-29T11:35:12.344Z,36.40
2023-03-29T11:38:03.219Z,35.83
2023-03-29T11:40:56.693Z,35.80
2023-03-29T11:43:39.891Z,36.72
2023-03-29T11:46:24.712Z,34.69
2023-03-29T11:49:11.296Z,35.56
2023-03-29T11:51:55.793Z,35.69
2023-03-29T11:54:41.124Z,37.23
2023-03-29T11:57:27.694Z,36.13
2023-03-29T12:00:12.486Z,35.55
2023-03-29T12:02:56.917Z,35.43
2023-03-29T12:05:42.551Z,35.78
2023-03-29T12:08:25.718Z,35.57
2023-03-29T12:11:16.203Z,35.52
2023-03-29T12:13:59.350Z,35.86
2023-03-29T12:16:45.500Z,36.83
2023-03-29T12:19:28.137Z,36.03
2023-03-29T12:22:08.034Z,34.87
2023-03-29T12:24:50.212Z,35.73
2023-03-29T12:27:35.945Z,35.09
2023-03-29T12:30:57.006Z,36.14
2023-03-29T12:34:31.108Z,35.87
2023-03-29T12:37:33.021Z,36.45
2023-03-29T12:40:37.217Z,34.92
2023-03-29T12:44:13.521Z,35.83
2023-03-29T12:47:43.888Z,34.72
2023-03-29T12:50:34.400Z,34.90
2023-03-29T12:53:24.112Z,36.27
2023-03-29T12:56:18.314Z,35.03
2023-03-29T12:59:27.752Z,35.53
2023-03-29T13:02:28.368Z,33.46
2023-03-29T13:05:07.749Z,34.37
2023-03-29T13:07:53.548Z,34.46
2023-03-29T13:10:53.142Z,34.86
2023-03-29T13:13:36.314Z,35.36
2023-03-29T13:16:20.570Z,34.69
2023-03-29T13:19:27.021Z,34.62
2023-03-29T13:22:22.182Z,34.99
2023-03-29T13:25:33.963Z,35.03
2023-03-29T13:28:24.030Z,35.53
2023-03-29T13:31:14.224Z,34.64
2023-03-29T13:34:08.353Z,34.70
2023-03-29T13:37:06.835Z,34.35
2023-03-29T13:39:54.013Z,34.10
2023-03-29T13:42:45.535Z,33.39
2023-03-29T13:45:35.423Z,34.03
2023-03-29T13:48:29.528Z,33.24
2023-03-29T13:51:25.310Z,33.89
2023-03-29T13:54:14.358Z,33.10
2023-03-29T13:57:06.813Z,33.52
2023-03-29T13:59:58.438Z,33.72
2023-03-29T14:02:47.342Z,33.56
2023-03-29T14:05:33.134Z,33.44
2023-03-29T14:08:22.869Z,34.37
2023-03-29T14:11:04.516Z,35.17
2023-03-29T14:13:41.697Z,33.79
2023-03-29T14:16:18.486Z,33.86
2023-03-29T14:18:55.499Z,33.70
2023-03-29T14:21:32.314Z,34.33
2023-03-29T14:24:14.033Z,34.64
2023-03-29T14:26:53.706Z,34.51
2023-03-29T14:29:35.952Z,34.83
2023-03-29T14:32:21.801Z,34.93
2023-03-29T14:34:58.834Z,34.75
2023-03-29T14:37:35.681Z,34.31
2023-03-29T14:40:22.020Z,34.43
2023-03-29T14:42:59.353Z,35.79
2023-03-29T14:45:36.078Z,35.75
2023-03-29T14:48:15.871Z,36.09
2023-03-29T14:50:53.372Z,35.98
2023-03-29T14:53:32.388Z,36.14
2023-03-29T14:56:13.944Z,36.42
2023-03-29T14:58:55.374Z,35.96
2023-03-29T15:01:33.458Z,35.44
2023-03-29T15:04:12.971Z,35.40
2023-03-29T15:06:52.522Z,36.61
2023-03-29T15:09:38.545Z,37.59
2023-03-29T15:12:20.846Z,37.24
2023-03-29T15:14:58.024Z,37.51
2023-03-29T15:17:51.055Z,37.31
2023-03-29T15:20:35.332Z,37.35
2023-03-29T15:23:26.651Z,37.76
2023-03-29T15:26:16.742Z,38.87
2023-03-29T15:29:03.182Z,38.76
2023-03-29T15:31:42.832Z,38.91
2023-03-29T15:34:30.949Z,38.85
2023-03-29T15:37:08.202Z,38.89
2023-03-29T15:39:46.809Z,39.75
2023-03-29T15:42:23.596Z,40.28
2023-03-29T15:45:05.164Z,40.22
2023-03-29T15:47:41.550Z,40.37
2023-03-29T15:50:18.687Z,40.52
2023-03-29T15:53:08.530Z,40.60
2023-03-29T15:55:53.054Z,41.01
2023-03-29T15:58:34.737Z,41.01
2023-03-29T16:01:34.622Z,40.73
2023-03-29T16:04:16.497Z,41.07
2023-03-29T16:06:55.904Z,41.49
2023-03-29T16:09:32.494Z,41.16
2023-03-29T16:12:09.347Z,41.50
2023-03-29T16:14:45.857Z,41.65
2023-03-29T16:17:22.343Z,41.99
2023-03-29T16:19:58.889Z,41.93
2023-03-29T16:22:38.514Z,41.78
2023-03-29T16:25:22.870Z,41.28
2023-03-29T16:27:59.445Z,41.30
2023-03-29T16:30:38.440Z,41.64
2023-03-29T16:33:16.066Z,41.25
2023-03-29T16:35:52.633Z,41.11
2023-03-29T16:38:29.565Z,41.25
2023-03-29T16:41:07.258Z,41.12
2023-03-29T16:43:44.888Z,41.61
2023-03-29T16:46:21.518Z,41.38
2023-03-29T16:49:00.302Z,41.54
2023-03-29T16:51:36.710Z,41.34
2023-03-29T16:54:13.036Z,41.67
2023-03-29T16:56:49.882Z,41.70
2023-03-29T16:59:27.242Z,41.30
2023-03-29T17:02:03.769Z,41.12
2023-03-29T17:04:40.492Z,41.06
2023-03-29T17:07:17.521Z,41.17
2023-03-29T17:09:54.793Z,41.37
2023-03-29T17:12:31.561Z,41.40
2023-03-29T17:15:10.563Z,41.62
2023-03-29T17:17:47.484Z,41.75
2023-03-29T17:20:24.879Z,41.84
2023-03-29T17:23:01.288Z,41.96
2023-03-29T17:25:37.934Z,42.02
2023-03-29T17:28:14.793Z,42.38
2023-03-29T17:30:52.006Z,42.90
2023-03-29T17:33:28.769Z,43.11
2023-03-29T17:36:06.407Z,43.12
2023-03-29T17:38:44.045Z,43.64
2023-03-29T17:41:21.565Z,44.09
2023-03-29T17:43:58.358Z,44.61
2023-03-29T17:46:34.874Z,44.74
2023-03-29T17:49:11.866Z,44.92
2023-03-29T17:51:48.750Z,45.16
2023-03-29T17:54:26.164Z,47.44
2023-03-29T17:57:02.892Z,46.87
2023-03-29T17:59:40.029Z,46.51
2023-03-29T18:02:22.865Z,46.63
2023-03-29T18:05:01.793Z,47.09
2023-03-29T18:07:40.158Z,46.76
2023-03-29T18:10:17.970Z,46.65
2023-03-29T18:12:54.686Z,47.00
2023-03-29T18:15:31.474Z,48.03
2023-03-29T18:18:08.824Z,48.18
2023-03-29T18:20:47.240Z,48.25
2023-03-29T18:23:24.480Z,48.97
2023-03-29T18:26:07.777Z,49.57
2023-03-29T18:28:46.705Z,49.91
2023-03-29T18:31:24.055Z,50.57
2023-03-29T18:34:01.202Z,51.08
2023-03-29T18:36:38.317Z,51.47
2023-03-29T18:39:15.062Z,51.73
2023-03-29T18:41:52.153Z,51.95
2023-03-29T18:44:30.763Z,52.27
2023-03-29T18:47:08.376Z,52.61
2023-03-29T18:49:45.550Z,52.89
2023-03-29T18:52:23.417Z,53.10
2023-03-29T18:55:01.052Z,53.40
2023-03-29T18:57:38.790Z,53.52
2023-03-29T19:00:18.307Z,53.78
2023-03-29T19:02:55.757Z,54.04
2023-03-29T19:05:33.362Z,54.47
2023-03-29T19:08:10.966Z,54.72
2023-03-29T19:10:48.697Z,54.80
2023-03-29T19:13:26.482Z,55.09
2023-03-29T19:16:04.487Z,55.56
2023-03-29T19:18:42.210Z,55.76
2023-03-29T19:21:19.336Z,55.81
2023-03-29T19:23:56.798Z,56.13
2023-03-29T19:26:34.549Z,56.21
2023-03-29T19:29:11.796Z,56.38
2023-03-29T19:31:48.868Z,56.55
2023-03-29T19:34:26.760Z,56.66
2023-03-29T19:37:04.088Z,56.74
2023-03-29T19:39:41.519Z,56.98
2023-03-29T19:42:18.890Z,57.15
2023-03-29T19:44:55.833Z,57.29
2023-03-29T19:47:33.070Z,57.34
2023-03-29T19:50:13.965Z,57.36
2023-03-29T19:52:51.357Z,57.45
2023-03-29T19:55:28.477Z,57.66
2023-03-29T19:58:05.375Z,58.03
2023-03-29T20:00:43.232Z,57.98
2023-03-29T20:03:24.899Z,58.05
2023-03-29T20:06:02.878Z,58.01
2023-03-29T20:08:41.435Z,58.05
2023-03-29T20:11:24.180Z,57.99
2023-03-29T20:14:03.122Z,58.08
2023-03-29T20:16:41.752Z,58.45
2023-03-29T20:19:18.837Z,58.65
2023-03-29T20:21:57.818Z,58.88
2023-03-29T20:24:35.177Z,58.99
2023-03-29T20:27:12.457Z,59.09
2023-03-29T20:29:50.488Z,59.20
2023-03-29T20:32:27.313Z,59.21
2023-03-29T20:35:04.209Z,59.31
2023-03-29T20:37:41.189Z,59.48
2023-03-29T20:40:20.941Z,59.84
2023-03-29T20:42:57.801Z,59.96
2023-03-29T20:45:51.652Z,60.11
2023-03-29T20:48:31.488Z,60.32
2023-03-29T20:51:10.237Z,60.68
2023-03-29T20:53:46.731Z,61.26
2023-03-29T20:56:26.346Z,61.50
2023-03-29T20:59:04.039Z,61.45
2023-03-29T21:01:41.287Z,61.96
2023-03-29T21:04:17.839Z,62.31
2023-03-29T21:06:56.290Z,62.46
2023-03-29T21:09:35.540Z,62.84
2023-03-29T21:12:13.517Z,63.20
2023-03-29T21:14:50.842Z,63.55
2023-03-29T21:17:28.145Z,63.58
2023-03-29T21:20:08.504Z,63.48
2023-03-29T21:22:46.695Z,63.42
2023-03-29T21:25:24.282Z,63.67
2023-03-29T21:28:01.789Z,63.76
2023-03-29T21:30:39.524Z,63.59
2023-03-29T21:33:16.980Z,63.46
2023-03-29T21:35:55.675Z,63.52
2023-03-29T21:38:33.239Z,63.35
2023-03-29T21:41:14.295Z,63.27
2023-03-29T21:43:51.865Z,63.18
2023-03-29T21:46:29.253Z,63.48
2023-03-29T21:49:06.712Z,63.50
2023-03-29T21:51:43.985Z,63.40
2023-03-29T21:54:21.390Z,63.44
2023-03-29T21:56:58.710Z,63.55
2023-03-29T21:59:36.356Z,63.95
2023-03-29T22:02:13.853Z,64.34
2023-03-29T22:04:51.911Z,64.70
2023-03-29T22:07:29.256Z,64.84
2023-03-29T22:10:08.238Z,64.93
2023-03-29T22:12:45.998Z,64.56
2023-03-29T22:15:24.453Z,64.59
2023-03-29T22:18:02.183Z,64.51
2023-03-29T22:20:40.321Z,64.51
2023-03-29T22:23:18.487Z,64.55
2023-03-29T22:25:55.877Z,64.99
2023-03-29T22:28:33.083Z,65.05
2023-03-29T22:31:13.372Z,65.14
2023-03-29T22:33:51.328Z,65.36
2023-03-29T22:36:31.928Z,65.70
2023-03-29T22:39:10.930Z,65.76
2023-03-29T22:41:48.197Z,66.25
2023-03-29T22:44:25.671Z,66.74
2023-03-29T22:47:03.181Z,66.89
2023-03-29T22:49:40.621Z,66.79
2023-03-29T22:52:17.901Z,66.72
2023-03-29T22:54:55.157Z,66.77
2023-03-29T22:57:32.885Z,66.79
2023-03-29T23:00:13.725Z,66.64
2023-03-29T23:02:51.625Z,66.67
2023-03-29T23:05:29.004Z,66.83
2023-03-29T23:08:07.051Z,66.86
2023-03-29T23:10:44.466Z,67.20
2023-03-29T23:13:26.040Z,67.47
2023-03-29T23:16:06.147Z,67.32
2023-03-29T23:18:43.350Z,67.34
2023-03-29T23:21:21.131Z,67.54
2023-03-29T23:23:58.445Z,67.85
2023-03-29T23:26:35.763Z,68.01
2023-03-29T23:29:13.739Z,68.21
2023-03-29T23:31:51.069Z,68.54
2023-03-29T23:34:28.781Z,68.61
2023-03-29T23:37:06.168Z,68.64
2023-03-29T23:39:43.445Z,68.44
2023-03-29T23:42:21.129Z,68.17
2023-03-29T23:44:58.460Z,68.29
2023-03-29T23:47:36.936Z,68.20
2023-03-29T23:50:16.965Z,68.05
2023-03-29T23:52:54.987Z,68.02
2023-03-29T23:55:32.342Z,67.72
2023-03-29T23:58:09.915Z,67.27
